sensor_id;sensor_type;location;lat;lon;timestamp;temperature;humidity
69893;DHT22;61212;42.688;22.176;2022-07-06T00:01:44;538.50;2406.40
69893;DHT22;61212;42.688;22.176;2022-07-06T00:04:10;538.40;2406.40
69893;DHT22;61212;42.688;22.176;2022-07-06T00:06:36;538.30;2406.40
69893;DHT22;61212;42.688;22.176;2022-07-06T00:09:03;538.20;2406.40
69893;DHT22;61212;42.688;22.176;2022-07-06T00:11:29;538.20;2406.40
69893;DHT22;61212;42.688;22.176;2022-07-06T00:13:55;538.20;2406.40
69893;DHT22;61212;42.688;22.176;2022-07-06T00:19:43;538.30;2406.40
69893;DHT22;61212;42.688;22.176;2022-07-06T00:22:09;538.20;2406.40
69893;DHT22;61212;42.688;22.176;2022-07-06T00:24:35;538.40;2406.40
69893;DHT22;61212;42.688;22.176;2022-07-06T00:27:01;538.50;2406.40
69893;DHT22;61212;42.688;22.176;2022-07-06T00:29:26;538.50;2406.40
69893;DHT22;61212;42.688;22.176;2022-07-06T00:31:52;538.50;2406.40
69893;DHT22;61212;42.688;22.176;2022-07-06T00:34:18;538.50;2406.40
69893;DHT22;61212;42.688;22.176;2022-07-06T00:36:43;538.30;2406.40
69893;DHT22;61212;42.688;22.176;2022-07-06T00:39:09;538.10;2406.40
69893;DHT22;61212;42.688;22.176;2022-07-06T00:41:35;538.10;2406.40
69893;DHT22;61212;42.688;22.176;2022-07-06T00:44:07;538.20;2406.40
69893;DHT22;61212;42.688;22.176;2022-07-06T00:46:33;538.20;2406.40
69893;DHT22;61212;42.688;22.176;2022-07-06T00:49:00;538.00;2406.40
69893;DHT22;61212;42.688;22.176;2022-07-06T00:51:29;537.70;2406.40
69893;DHT22;61212;42.688;22.176;2022-07-06T00:54:02;537.90;2406.40
69893;DHT22;61212;42.688;22.176;2022-07-06T01:06:15;538.00;2406.40
69893;DHT22;61212;42.688;22.176;2022-07-06T01:08:41;537.80;2406.40
69893;DHT22;61212;42.688;22.176;2022-07-06T01:11:07;537.80;2406.40
69893;DHT22;61212;42.688;22.176;2022-07-06T01:13:33;537.80;2406.40
69893;DHT22;61212;42.688;22.176;2022-07-06T01:19:21;512.80;2380.80
69893;DHT22;61212;42.688;22.176;2022-07-06T01:21:47;512.70;2380.80
69893;DHT22;61212;42.688;22.176;2022-07-06T01:24:13;537.60;2406.40
69893;DHT22;61212;42.688;22.176;2022-07-06T01:26:39;512.90;2380.80
69893;DHT22;61212;42.688;22.176;2022-07-06T01:29:05;537.70;2406.40
69893;DHT22;61212;42.688;22.176;2022-07-06T01:34:52;512.80;2380.80
69893;DHT22;61212;42.688;22.176;2022-07-06T01:37:18;512.80;2380.80
69893;DHT22;61212;42.688;22.176;2022-07-06T01:39:44;512.90;2380.80
69893;DHT22;61212;42.688;22.176;2022-07-06T01:42:10;537.70;2406.40
69893;DHT22;61212;42.688;22.176;2022-07-06T01:44:35;512.90;2380.80
69893;DHT22;61212;42.688;22.176;2022-07-06T01:47:01;537.80;2406.40
69893;DHT22;61212;42.688;22.176;2022-07-06T01:49:27;512.90;2380.80
69893;DHT22;61212;42.688;22.176;2022-07-06T01:51:53;512.80;2380.80
69893;DHT22;61212;42.688;22.176;2022-07-06T01:54:18;512.70;2380.80
69893;DHT22;61212;42.688;22.176;2022-07-06T03:01:04;487.10;2380.80
69893;DHT22;61212;42.688;22.176;2022-07-06T03:03:30;486.80;2380.80
69893;DHT22;61212;42.688;22.176;2022-07-06T03:05:55;486.80;2380.80
69893;DHT22;61212;42.688;22.176;2022-07-06T03:30:16;512.00;2380.80
69893;DHT22;61212;42.688;22.176;2022-07-06T03:33:00;487.10;2380.80
69893;DHT22;61212;42.688;22.176;2022-07-06T03:35:26;487.10;2380.80
69893;DHT22;61212;42.688;22.176;2022-07-06T05:55:55;538.00;2406.40
69893;DHT22;61212;42.688;22.176;2022-07-06T05:58:21;537.90;2406.40
69893;DHT22;61212;42.688;22.176;2022-07-06T06:00:47;537.80;2406.40
69893;DHT22;61212;42.688;22.176;2022-07-06T06:03:13;538.40;2406.40
69893;DHT22;61212;42.688;22.176;2022-07-06T06:05:38;538.30;2406.40
69893;DHT22;61212;42.688;22.176;2022-07-06T06:08:05;538.30;2406.40
69893;DHT22;61212;42.688;22.176;2022-07-06T06:10:31;538.40;2406.40
69893;DHT22;61212;42.688;22.176;2022-07-06T06:12:57;538.20;2406.40
69893;DHT22;61212;42.688;22.176;2022-07-06T06:50:46;564.00;2432.00
69893;DHT22;61212;42.688;22.176;2022-07-06T06:53:12;563.70;2432.00
69893;DHT22;61212;42.688;22.176;2022-07-06T06:55:38;563.80;2432.00
69893;DHT22;61212;42.688;22.176;2022-07-06T06:58:03;564.00;2432.00
69893;DHT22;61212;42.688;22.176;2022-07-06T07:00:29;563.80;2432.00
69893;DHT22;61212;42.688;22.176;2022-07-06T07:03:13;563.80;2432.00
69893;DHT22;61212;42.688;22.176;2022-07-06T07:05:39;563.90;2432.00
69893;DHT22;61212;42.688;22.176;2022-07-06T07:08:05;564.10;2432.00
69893;DHT22;61212;42.688;22.176;2022-07-06T07:10:31;588.90;2432.00
69893;DHT22;61212;42.688;22.176;2022-07-06T07:12:57;564.10;2432.00
69893;DHT22;61212;42.688;22.176;2022-07-06T07:15:23;564.10;2432.00
69893;DHT22;61212;42.688;22.176;2022-07-06T07:17:49;564.00;2432.00
69893;DHT22;61212;42.688;22.176;2022-07-06T07:20:15;563.80;2432.00
69893;DHT22;61212;42.688;22.176;2022-07-06T07:22:40;563.70;2432.00
69893;DHT22;61212;42.688;22.176;2022-07-06T07:25:07;563.70;2432.00
69893;DHT22;61212;42.688;22.176;2022-07-06T07:27:33;563.60;2432.00
69893;DHT22;61212;42.688;22.176;2022-07-06T07:29:59;563.50;2432.00
69893;DHT22;61212;42.688;22.176;2022-07-06T07:32:37;563.60;2432.00
69893;DHT22;61212;42.688;22.176;2022-07-06T07:35:03;563.50;2432.00
69893;DHT22;61212;42.688;22.176;2022-07-06T07:37:29;563.60;2432.00
69893;DHT22;61212;42.688;22.176;2022-07-06T07:39:55;563.50;2432.00
69893;DHT22;61212;42.688;22.176;2022-07-06T07:42:20;563.40;2432.00
69893;DHT22;61212;42.688;22.176;2022-07-06T07:44:46;563.40;2432.00
69893;DHT22;61212;42.688;22.176;2022-07-06T07:47:12;563.60;2432.00
69893;DHT22;61212;42.688;22.176;2022-07-06T07:49:38;563.50;2432.00
69893;DHT22;61212;42.688;22.176;2022-07-06T07:52:04;563.50;2432.00
69893;DHT22;61212;42.688;22.176;2022-07-06T07:54:29;563.60;2432.00
69893;DHT22;61212;42.688;22.176;2022-07-06T07:56:56;563.40;2432.00
69893;DHT22;61212;42.688;22.176;2022-07-06T07:59:22;563.50;2432.00
69893;DHT22;61212;42.688;22.176;2022-07-06T08:01:48;563.50;2432.00
69893;DHT22;61212;42.688;22.176;2022-07-06T08:04:13;563.30;2432.00
69893;DHT22;61212;42.688;22.176;2022-07-06T08:06:39;563.40;2432.00
69893;DHT22;61212;42.688;22.176;2022-07-06T08:09:05;563.50;2432.00
69893;DHT22;61212;42.688;22.176;2022-07-06T08:11:33;563.50;2432.00
69893;DHT22;61212;42.688;22.176;2022-07-06T08:14:00;563.70;2432.00
69893;DHT22;61212;42.688;22.176;2022-07-06T08:16:26;563.60;2432.00
69893;DHT22;61212;42.688;22.176;2022-07-06T08:18:51;563.70;2432.00
69893;DHT22;61212;42.688;22.176;2022-07-06T08:21:17;564.00;2432.00
69893;DHT22;61212;42.688;22.176;2022-07-06T08:23:43;564.10;2432.00
69893;DHT22;61212;42.688;22.176;2022-07-06T08:28:35;588.90;2432.00
69893;DHT22;61212;42.688;22.176;2022-07-06T08:31:01;589.30;2406.40
69893;DHT22;61212;42.688;22.176;2022-07-06T08:33:27;589.20;2432.00
69893;DHT22;61212;42.688;22.176;2022-07-06T08:35:53;589.10;2432.00
69893;DHT22;61212;42.688;22.176;2022-07-06T08:38:18;564.10;2432.00
69893;DHT22;61212;42.688;22.176;2022-07-06T08:40:47;564.10;2432.00
69893;DHT22;61212;42.688;22.176;2022-07-06T08:43:14;564.10;2432.00
69893;DHT22;61212;42.688;22.176;2022-07-06T08:45:41;588.80;2432.00
69893;DHT22;61212;42.688;22.176;2022-07-06T08:48:10;564.10;2432.00
69893;DHT22;61212;42.688;22.176;2022-07-06T08:50:37;588.90;2432.00
69893;DHT22;61212;42.688;22.176;2022-07-06T08:53:05;588.80;2048.00
69893;DHT22;61212;42.688;22.176;2022-07-06T08:55:32;588.80;2432.00
69893;DHT22;61212;42.688;22.176;2022-07-06T08:57:59;588.80;2432.00
69893;DHT22;61212;42.688;22.176;2022-07-06T09:00:25;564.10;2432.00
69893;DHT22;61212;42.688;22.176;2022-07-06T09:06:04;564.10;2432.00
69893;DHT22;61212;42.688;22.176;2022-07-06T09:08:32;564.00;2432.00
69893;DHT22;61212;42.688;22.176;2022-07-06T09:10:58;564.00;2432.00
69893;DHT22;61212;42.688;22.176;2022-07-06T09:13:24;564.10;2432.00
69893;DHT22;61212;42.688;22.176;2022-07-06T09:15:50;588.90;2432.00
69893;DHT22;61212;42.688;22.176;2022-07-06T09:18:15;589.00;2432.00
69893;DHT22;61212;42.688;22.176;2022-07-06T09:23:08;614.40;2432.00
69893;DHT22;61212;42.688;22.176;2022-07-06T09:25:34;589.70;2432.00
69893;DHT22;61212;42.688;22.176;2022-07-06T09:28:01;589.70;2432.00
69893;DHT22;61212;42.688;22.176;2022-07-06T09:30:28;589.70;2432.00
69893;DHT22;61212;42.688;22.176;2022-07-06T09:33:07;589.70;2432.00
69893;DHT22;61212;42.688;22.176;2022-07-06T09:35:37;614.50;2432.00
69893;DHT22;61212;42.688;22.176;2022-07-06T09:38:08;589.70;2432.00
69893;DHT22;61212;42.688;22.176;2022-07-06T09:40:37;614.70;2432.00
69893;DHT22;61212;42.688;22.176;2022-07-06T09:43:17;614.50;2432.00
69893;DHT22;61212;42.688;22.176;2022-07-06T09:45:50;614.50;2432.00
69893;DHT22;61212;42.688;22.176;2022-07-06T09:48:52;589.70;2432.00
69893;DHT22;61212;42.688;22.176;2022-07-06T09:51:20;589.70;2432.00
69893;DHT22;61212;42.688;22.176;2022-07-06T09:53:51;589.50;2432.00
69893;DHT22;61212;42.688;22.176;2022-07-06T09:56:18;589.50;2432.00
69893;DHT22;61212;42.688;22.176;2022-07-06T09:58:43;589.40;2432.00
69893;DHT22;61212;42.688;22.176;2022-07-06T10:01:09;589.40;2432.00
69893;DHT22;61212;42.688;22.176;2022-07-06T10:03:35;589.40;2432.00
69893;DHT22;61212;42.688;22.176;2022-07-06T10:06:01;589.60;2432.00
69893;DHT22;61212;42.688;22.176;2022-07-06T10:08:28;589.40;2432.00
69893;DHT22;61212;42.688;22.176;2022-07-06T10:10:55;589.30;2432.00
69893;DHT22;61212;42.688;22.176;2022-07-06T10:13:21;589.30;2432.00
69893;DHT22;61212;42.688;22.176;2022-07-06T10:15:49;589.20;2432.00
69893;DHT22;61212;42.688;22.176;2022-07-06T10:21:38;589.30;2432.00
69893;DHT22;61212;42.688;22.176;2022-07-06T10:24:08;589.30;2432.00
69893;DHT22;61212;42.688;22.176;2022-07-06T10:26:35;589.20;2432.00
69893;DHT22;61212;42.688;22.176;2022-07-06T10:29:02;589.20;2432.00
69893;DHT22;61212;42.688;22.176;2022-07-06T10:31:29;589.30;2432.00
69893;DHT22;61212;42.688;22.176;2022-07-06T10:34:15;589.30;2432.00
69893;DHT22;61212;42.688;22.176;2022-07-06T10:36:44;589.70;2432.00
69893;DHT22;61212;42.688;22.176;2022-07-06T10:39:11;589.50;2201.60
69893;DHT22;61212;42.688;22.176;2022-07-06T10:41:55;614.40;2432.00
69893;DHT22;61212;42.688;22.176;2022-07-06T10:44:25;614.60;2432.00
69893;DHT22;61212;42.688;22.176;2022-07-06T10:46:58;614.70;2432.00
69893;DHT22;61212;42.688;22.176;2022-07-06T10:49:26;615.10;2432.00
69893;DHT22;61212;42.688;22.176;2022-07-06T10:51:52;615.20;2432.00
69893;DHT22;61212;42.688;22.176;2022-07-06T10:54:19;615.10;2432.00
69893;DHT22;61212;42.688;22.176;2022-07-06T10:56:48;615.10;2432.00
69893;DHT22;61212;42.688;22.176;2022-07-06T11:04:43;615.30;2432.00
69893;DHT22;61212;42.688;22.176;2022-07-06T11:07:12;615.20;2432.00
69893;DHT22;61212;42.688;22.176;2022-07-06T11:09:38;615.20;2432.00
69893;DHT22;61212;42.688;22.176;2022-07-06T11:12:15;615.20;2432.00
69893;DHT22;61212;42.688;22.176;2022-07-06T11:14:42;615.00;2432.00
69893;DHT22;61212;42.688;22.176;2022-07-06T11:17:10;615.10;2432.00
69893;DHT22;61212;42.688;22.176;2022-07-06T11:19:37;614.90;2432.00
69893;DHT22;61212;42.688;22.176;2022-07-06T11:24:35;615.20;2432.00
69893;DHT22;61212;42.688;22.176;2022-07-06T11:29:28;640.40;2432.00
69893;DHT22;61212;42.688;22.176;2022-07-06T11:31:56;640.20;2432.00
69893;DHT22;61212;42.688;22.176;2022-07-06T11:34:28;640.50;2432.00
69893;DHT22;61212;42.688;22.176;2022-07-06T11:36:56;640.60;2432.00
69893;DHT22;61212;42.688;22.176;2022-07-06T11:39:25;640.90;2432.00
69893;DHT22;61212;42.688;22.176;2022-07-06T11:41:51;665.80;2432.00
69893;DHT22;61212;42.688;22.176;2022-07-06T11:44:17;666.20;2432.00
69893;DHT22;61212;42.688;22.176;2022-07-06T11:46:43;665.90;2432.00
69893;DHT22;61212;42.688;22.176;2022-07-06T11:59:01;666.50;2432.00
69893;DHT22;61212;42.688;22.176;2022-07-06T12:01:28;666.50;2432.00
69893;DHT22;61212;42.688;22.176;2022-07-06T12:04:01;666.30;2432.00
69893;DHT22;61212;42.688;22.176;2022-07-06T12:06:29;666.20;2432.00
69893;DHT22;61212;42.688;22.176;2022-07-06T12:09:00;666.00;2432.00
69893;DHT22;61212;42.688;22.176;2022-07-06T12:11:32;666.20;2432.00
69893;DHT22;61212;42.688;22.176;2022-07-06T12:14:00;666.20;2432.00
69893;DHT22;61212;42.688;22.176;2022-07-06T12:16:35;666.20;2432.00
69893;DHT22;61212;42.688;22.176;2022-07-06T12:21:48;666.20;2432.00
69893;DHT22;61212;42.688;22.176;2022-07-06T12:26:44;665.70;2432.00
69893;DHT22;61212;42.688;22.176;2022-07-06T12:29:11;665.60;2432.00
69893;DHT22;61212;42.688;22.176;2022-07-06T12:31:42;665.60;2432.00
69893;DHT22;61212;42.688;22.176;2022-07-06T12:34:17;665.90;2432.00
69893;DHT22;61212;42.688;22.176;2022-07-06T12:36:45;666.20;2432.00
69893;DHT22;61212;42.688;22.176;2022-07-06T12:42:04;691.40;2432.00
69893;DHT22;61212;42.688;22.176;2022-07-06T13:11:40;691.30;2432.00
69893;DHT22;61212;42.688;22.176;2022-07-06T13:14:06;666.30;2432.00
69893;DHT22;61212;42.688;22.176;2022-07-06T13:16:32;666.30;2432.00
69893;DHT22;61212;42.688;22.176;2022-07-06T13:19:18;666.10;2432.00
69893;DHT22;61212;42.688;22.176;2022-07-06T13:21:44;666.00;2432.00
69893;DHT22;61212;42.688;22.176;2022-07-06T15:46:02;691.40;2380.80
69893;DHT22;61212;42.688;22.176;2022-07-06T15:48:30;691.30;2355.20
69893;DHT22;61212;42.688;22.176;2022-07-06T15:50:57;691.30;2432.00
69893;DHT22;61212;42.688;22.176;2022-07-06T15:53:23;691.20;2432.00
69893;DHT22;61212;42.688;22.176;2022-07-06T15:55:49;666.40;2432.00
69893;DHT22;61212;42.688;22.176;2022-07-06T15:58:16;691.20;2432.00
69893;DHT22;61212;42.688;22.176;2022-07-06T16:03:08;691.30;2432.00
69893;DHT22;61212;42.688;22.176;2022-07-06T16:05:34;691.20;2432.00
69893;DHT22;61212;42.688;22.176;2022-07-06T16:08:00;666.50;2432.00
69893;DHT22;61212;42.688;22.176;2022-07-06T16:10:27;666.50;2432.00
69893;DHT22;61212;42.688;22.176;2022-07-06T16:12:55;666.50;2432.00
69893;DHT22;61212;42.688;22.176;2022-07-06T16:15:22;691.30;2432.00
69893;DHT22;61212;42.688;22.176;2022-07-06T16:17:48;666.50;2432.00
69893;DHT22;61212;42.688;22.176;2022-07-06T16:20:13;666.50;2432.00
69893;DHT22;61212;42.688;22.176;2022-07-06T16:22:41;666.40;2432.00
69893;DHT22;61212;42.688;22.176;2022-07-06T16:27:34;666.50;2432.00
69893;DHT22;61212;42.688;22.176;2022-07-06T16:29:59;666.30;2432.00
69893;DHT22;61212;42.688;22.176;2022-07-06T16:32:26;666.00;2432.00
69893;DHT22;61212;42.688;22.176;2022-07-06T16:34:52;666.10;2432.00
69893;DHT22;61212;42.688;22.176;2022-07-06T16:37:17;665.90;2432.00
69893;DHT22;61212;42.688;22.176;2022-07-06T16:39:43;665.90;2432.00
69893;DHT22;61212;42.688;22.176;2022-07-06T16:42:09;665.90;2432.00
69893;DHT22;61212;42.688;22.176;2022-07-06T16:44:36;665.90;2432.00
69893;DHT22;61212;42.688;22.176;2022-07-06T16:47:02;665.90;2432.00
69893;DHT22;61212;42.688;22.176;2022-07-06T16:49:27;665.70;2432.00
69893;DHT22;61212;42.688;22.176;2022-07-06T16:51:53;665.70;2432.00
69893;DHT22;61212;42.688;22.176;2022-07-06T16:54:19;665.70;2432.00
69893;DHT22;61212;42.688;22.176;2022-07-06T16:56:44;665.60;2432.00
69893;DHT22;61212;42.688;22.176;2022-07-06T16:59:10;640.90;2432.00
69893;DHT22;61212;42.688;22.176;2022-07-06T17:01:36;665.70;2432.00
69893;DHT22;61212;42.688;22.176;2022-07-06T17:04:02;640.80;2432.00
69893;DHT22;61212;42.688;22.176;2022-07-06T17:06:28;665.60;2432.00
69893;DHT22;61212;42.688;22.176;2022-07-06T17:08:55;640.80;2432.00
69893;DHT22;61212;42.688;22.176;2022-07-06T17:11:21;640.90;2432.00
69893;DHT22;61212;42.688;22.176;2022-07-06T17:16:13;640.80;2432.00
69893;DHT22;61212;42.688;22.176;2022-07-06T17:18:40;640.50;2432.00
69893;DHT22;61212;42.688;22.176;2022-07-06T17:21:06;640.50;2432.00
69893;DHT22;61212;42.688;22.176;2022-07-06T17:23:31;640.30;2432.00
69893;DHT22;61212;42.688;22.176;2022-07-06T17:25:57;640.20;2432.00
69893;DHT22;61212;42.688;22.176;2022-07-06T17:28:25;640.10;2432.00
69893;DHT22;61212;42.688;22.176;2022-07-06T17:30:52;640.00;2432.00
69893;DHT22;61212;42.688;22.176;2022-07-06T17:33:17;640.10;2432.00
69893;DHT22;61212;42.688;22.176;2022-07-06T17:35:43;640.10;2432.00
69893;DHT22;61212;42.688;22.176;2022-07-06T17:38:09;640.00;2432.00
69893;DHT22;61212;42.688;22.176;2022-07-06T17:40:35;615.30;2432.00
69893;DHT22;61212;42.688;22.176;2022-07-06T17:43:01;615.30;2432.00
69893;DHT22;61212;42.688;22.176;2022-07-06T17:45:27;615.20;2432.00
69893;DHT22;61212;42.688;22.176;2022-07-06T17:47:52;615.20;2432.00
69893;DHT22;61212;42.688;22.176;2022-07-06T17:50:19;615.10;2432.00
69893;DHT22;61212;42.688;22.176;2022-07-06T17:52:45;615.10;2432.00
69893;DHT22;61212;42.688;22.176;2022-07-06T17:55:11;615.00;2432.00
69893;DHT22;61212;42.688;22.176;2022-07-06T17:57:38;615.00;2432.00
69893;DHT22;61212;42.688;22.176;2022-07-06T18:00:05;615.00;2432.00
69893;DHT22;61212;42.688;22.176;2022-07-06T18:02:34;614.90;2432.00
69893;DHT22;61212;42.688;22.176;2022-07-06T18:05:00;614.90;2432.00
69893;DHT22;61212;42.688;22.176;2022-07-06T18:07:26;614.90;2432.00
69893;DHT22;61212;42.688;22.176;2022-07-06T18:09:53;614.90;2432.00
69893;DHT22;61212;42.688;22.176;2022-07-06T18:12:21;614.80;2432.00
69893;DHT22;61212;42.688;22.176;2022-07-06T18:14:47;614.80;2432.00
69893;DHT22;61212;42.688;22.176;2022-07-06T18:17:14;614.80;2432.00
69893;DHT22;61212;42.688;22.176;2022-07-06T18:19:41;614.80;2432.00
69893;DHT22;61212;42.688;22.176;2022-07-06T18:22:07;614.80;2432.00
69893;DHT22;61212;42.688;22.176;2022-07-06T18:24:33;614.60;2432.00
69893;DHT22;61212;42.688;22.176;2022-07-06T18:26:59;614.80;2432.00
69893;DHT22;61212;42.688;22.176;2022-07-06T18:29:24;614.50;2432.00
69893;DHT22;61212;42.688;22.176;2022-07-06T18:31:50;614.60;2432.00
69893;DHT22;61212;42.688;22.176;2022-07-06T18:34:16;614.40;2432.00
69893;DHT22;61212;42.688;22.176;2022-07-06T18:36:42;614.50;2432.00
69893;DHT22;61212;42.688;22.176;2022-07-06T18:39:08;614.50;2432.00
69893;DHT22;61212;42.688;22.176;2022-07-06T18:41:34;614.40;2432.00
69893;DHT22;61212;42.688;22.176;2022-07-06T18:43:59;589.70;2432.00
69893;DHT22;61212;42.688;22.176;2022-07-06T18:46:25;589.70;2432.00
69893;DHT22;61212;42.688;22.176;2022-07-06T18:48:51;589.70;2432.00
69893;DHT22;61212;42.688;22.176;2022-07-06T18:51:18;589.60;2432.00
69893;DHT22;61212;42.688;22.176;2022-07-06T18:53:44;589.60;2432.00
69893;DHT22;61212;42.688;22.176;2022-07-06T18:56:10;589.50;2432.00
69893;DHT22;61212;42.688;22.176;2022-07-06T18:58:36;589.40;2432.00
69893;DHT22;61212;42.688;22.176;2022-07-06T19:01:02;589.10;2432.00
69893;DHT22;61212;42.688;22.176;2022-07-06T19:03:27;589.00;2432.00
69893;DHT22;61212;42.688;22.176;2022-07-06T19:05:54;589.00;2432.00
69893;DHT22;61212;42.688;22.176;2022-07-06T19:08:20;564.10;2432.00
69893;DHT22;61212;42.688;22.176;2022-07-06T19:10:46;588.80;2432.00
69893;DHT22;61212;42.688;22.176;2022-07-06T19:13:12;588.80;2432.00
69893;DHT22;61212;42.688;22.176;2022-07-06T19:15:39;564.10;2432.00
69893;DHT22;61212;42.688;22.176;2022-07-06T19:18:04;564.10;2432.00
69893;DHT22;61212;42.688;22.176;2022-07-06T19:20:30;564.10;2432.00
69893;DHT22;61212;42.688;22.176;2022-07-06T19:37:35;563.80;2432.00
69893;DHT22;61212;42.688;22.176;2022-07-06T19:40:01;563.60;2432.00
69893;DHT22;61212;42.688;22.176;2022-07-06T19:42:27;563.80;2432.00
69893;DHT22;61212;42.688;22.176;2022-07-06T19:44:53;563.70;2432.00
69893;DHT22;61212;42.688;22.176;2022-07-06T19:47:19;563.70;2432.00
69893;DHT22;61212;42.688;22.176;2022-07-06T19:49:45;563.70;2432.00
69893;DHT22;61212;42.688;22.176;2022-07-06T19:52:10;563.80;2432.00
69893;DHT22;61212;42.688;22.176;2022-07-06T19:54:36;563.70;2432.00
69893;DHT22;61212;42.688;22.176;2022-07-06T19:57:03;563.60;2432.00
69893;DHT22;61212;42.688;22.176;2022-07-06T19:59:32;563.70;2432.00
69893;DHT22;61212;42.688;22.176;2022-07-06T20:14:13;563.50;2432.00
69893;DHT22;61212;42.688;22.176;2022-07-06T20:16:39;563.20;2432.00
69893;DHT22;61212;42.688;22.176;2022-07-06T20:19:05;538.50;2406.40
69893;DHT22;61212;42.688;22.176;2022-07-06T20:21:31;538.50;2406.40
69893;DHT22;61212;42.688;22.176;2022-07-06T20:23:57;538.40;2406.40
69893;DHT22;61212;42.688;22.176;2022-07-06T20:26:22;538.40;2406.40
69893;DHT22;61212;42.688;22.176;2022-07-06T20:28:48;538.20;2406.40
69893;DHT22;61212;42.688;22.176;2022-07-06T20:31:14;538.30;2406.40
69893;DHT22;61212;42.688;22.176;2022-07-06T20:33:40;538.00;2355.20
69893;DHT22;61212;42.688;22.176;2022-07-06T20:36:07;538.00;2406.40
69893;DHT22;61212;42.688;22.176;2022-07-06T20:38:34;537.90;2099.20
69893;DHT22;61212;42.688;22.176;2022-07-06T20:41:00;537.80;2406.40
69893;DHT22;61212;42.688;22.176;2022-07-06T20:43:26;537.60;2406.40
69893;DHT22;61212;42.688;22.176;2022-07-06T20:45:52;512.90;2380.80
69893;DHT22;61212;42.688;22.176;2022-07-06T20:48:18;512.70;2380.80
69893;DHT22;61212;42.688;22.176;2022-07-06T20:50:44;512.90;2380.80
69893;DHT22;61212;42.688;22.176;2022-07-06T20:53:10;512.70;2380.80
69893;DHT22;61212;42.688;22.176;2022-07-06T20:55:36;512.60;2380.80
69893;DHT22;61212;42.688;22.176;2022-07-06T20:58:03;512.50;2380.80
69893;DHT22;61212;42.688;22.176;2022-07-06T21:00:31;512.30;1996.80
69893;DHT22;61212;42.688;22.176;2022-07-06T21:02:57;512.40;2380.80
69893;DHT22;61212;42.688;22.176;2022-07-06T21:05:23;512.30;2380.80
69893;DHT22;61212;42.688;22.176;2022-07-06T21:07:48;512.30;2380.80
69893;DHT22;61212;42.688;22.176;2022-07-06T21:10:14;512.50;2201.60
69893;DHT22;61212;42.688;22.176;2022-07-06T21:12:40;512.40;2380.80
69893;DHT22;61212;42.688;22.176;2022-07-06T21:15:06;512.30;2380.80
69893;DHT22;61212;42.688;22.176;2022-07-06T21:17:32;512.30;1996.80
69893;DHT22;61212;42.688;22.176;2022-07-06T21:19:58;512.30;2380.80
69893;DHT22;61212;42.688;22.176;2022-07-06T21:22:24;512.10;2380.80
69893;DHT22;61212;42.688;22.176;2022-07-06T21:24:49;512.10;2380.80
69893;DHT22;61212;42.688;22.176;2022-07-06T21:27:15;512.20;2380.80
69893;DHT22;61212;42.688;22.176;2022-07-06T21:29:41;512.30;2380.80
69893;DHT22;61212;42.688;22.176;2022-07-06T21:32:07;512.00;2380.80
69893;DHT22;61212;42.688;22.176;2022-07-06T21:34:33;487.30;2380.80
69893;DHT22;61212;42.688;22.176;2022-07-06T21:36:59;487.30;2380.80
69893;DHT22;61212;42.688;22.176;2022-07-06T21:39:25;487.20;2380.80
69893;DHT22;61212;42.688;22.176;2022-07-06T21:49:09;512.10;2380.80
69893;DHT22;61212;42.688;22.176;2022-07-06T22:03:45;512.00;2380.80
69893;DHT22;61212;42.688;22.176;2022-07-06T22:06:11;487.20;2380.80
69893;DHT22;61212;42.688;22.176;2022-07-06T22:13:29;512.30;2380.80
69893;DHT22;61212;42.688;22.176;2022-07-06T22:16:08;512.00;2380.80
69893;DHT22;61212;42.688;22.176;2022-07-06T22:18:35;487.30;2380.80
69893;DHT22;61212;42.688;22.176;2022-07-06T22:21:01;487.30;2380.80
69893;DHT22;61212;42.688;22.176;2022-07-06T22:23:27;487.30;2380.80
69893;DHT22;61212;42.688;22.176;2022-07-06T22:25:52;487.30;2380.80
69893;DHT22;61212;42.688;22.176;2022-07-06T22:28:18;487.30;2380.80
69893;DHT22;61212;42.688;22.176;2022-07-06T22:30:44;487.30;2380.80
69893;DHT22;61212;42.688;22.176;2022-07-06T22:33:10;487.30;2380.80
69893;DHT22;61212;42.688;22.176;2022-07-06T22:35:36;487.30;2380.80
69893;DHT22;61212;42.688;22.176;2022-07-06T22:38:02;487.30;2380.80
69893;DHT22;61212;42.688;22.176;2022-07-06T22:40:27;487.20;2380.80
69893;DHT22;61212;42.688;22.176;2022-07-06T22:43:12;487.10;2380.80
69893;DHT22;61212;42.688;22.176;2022-07-06T22:45:37;487.10;2380.80
69893;DHT22;61212;42.688;22.176;2022-07-06T22:48:03;487.10;2380.80
69893;DHT22;61212;42.688;22.176;2022-07-06T22:50:29;487.10;2380.80
69893;DHT22;61212;42.688;22.176;2022-07-06T22:55:21;512.10;2380.80
69893;DHT22;61212;42.688;22.176;2022-07-06T22:57:46;487.30;2380.80
69893;DHT22;61212;42.688;22.176;2022-07-06T23:00:13;487.30;2380.80
69893;DHT22;61212;42.688;22.176;2022-07-06T23:02:38;487.10;2380.80
69893;DHT22;61212;42.688;22.176;2022-07-06T23:05:05;512.00;2380.80
69893;DHT22;61212;42.688;22.176;2022-07-06T23:07:31;487.30;2380.80
69893;DHT22;61212;42.688;22.176;2022-07-06T23:09:56;487.30;2380.80
69893;DHT22;61212;42.688;22.176;2022-07-06T23:12:22;512.10;2380.80
69893;DHT22;61212;42.688;22.176;2022-07-06T23:14:48;487.30;2380.80
69893;DHT22;61212;42.688;22.176;2022-07-06T23:17:14;487.30;2380.80
69893;DHT22;61212;42.688;22.176;2022-07-06T23:19:40;487.00;2380.80
69893;DHT22;61212;42.688;22.176;2022-07-06T23:22:06;487.00;2380.80
69893;DHT22;61212;42.688;22.176;2022-07-06T23:24:32;487.10;2380.80
69893;DHT22;61212;42.688;22.176;2022-07-06T23:26:58;486.90;2380.80
69893;DHT22;61212;42.688;22.176;2022-07-06T23:29:25;486.90;2380.80
69893;DHT22;61212;42.688;22.176;2022-07-06T23:31:50;486.80;2380.80
69893;DHT22;61212;42.688;22.176;2022-07-06T23:34:16;486.80;2380.80
69893;DHT22;61212;42.688;22.176;2022-07-06T23:36:42;486.90;2380.80
69893;DHT22;61212;42.688;22.176;2022-07-06T23:39:08;486.70;2380.80
69893;DHT22;61212;42.688;22.176;2022-07-06T23:41:34;486.80;2380.80
69893;DHT22;61212;42.688;22.176;2022-07-06T23:44:00;486.80;2380.80